sensor_id;sensor_type;location;lat;lon;timestamp;temperature;humidity
9847;DHT22;68671;50.084;8.794;2023-07-13T00:00:52;23.00;67.00
9847;DHT22;68671;50.084;8.794;2023-07-13T00:03:21;22.90;67.00
9847;DHT22;68671;50.084;8.794;2023-07-13T00:05:57;23.00;67.30
9847;DHT22;68671;50.084;8.794;2023-07-13T00:08:24;22.90;67.30
9847;DHT22;68671;50.084;8.794;2023-07-13T00:10:52;22.90;67.30
9847;DHT22;68671;50.084;8.794;2023-07-13T00:13:20;22.90;67.40
9847;DHT22;68671;50.084;8.794;2023-07-13T00:15:47;22.90;67.50
9847;DHT22;68671;50.084;8.794;2023-07-13T00:18:14;22.90;67.70
9847;DHT22;68671;50.084;8.794;2023-07-13T00:20:42;22.80;67.80
9847;DHT22;68671;50.084;8.794;2023-07-13T00:23:09;22.90;68.00
9847;DHT22;68671;50.084;8.794;2023-07-13T00:25:36;22.80;67.90
9847;DHT22;68671;50.084;8.794;2023-07-13T00:28:03;22.80;68.00
9847;DHT22;68671;50.084;8.794;2023-07-13T00:30:30;22.80;68.20
9847;DHT22;68671;50.084;8.794;2023-07-13T00:32:57;22.80;68.20
9847;DHT22;68671;50.084;8.794;2023-07-13T00:35:29;22.70;68.10
9847;DHT22;68671;50.084;8.794;2023-07-13T00:37:58;22.70;68.20
9847;DHT22;68671;50.084;8.794;2023-07-13T00:40:25;22.70;68.20
9847;DHT22;68671;50.084;8.794;2023-07-13T00:42:52;22.70;68.20
9847;DHT22;68671;50.084;8.794;2023-07-13T00:48:21;22.60;68.40
9847;DHT22;68671;50.084;8.794;2023-07-13T00:50:51;22.60;68.40
9847;DHT22;68671;50.084;8.794;2023-07-13T00:53:21;22.60;68.60
9847;DHT22;68671;50.084;8.794;2023-07-13T00:55:49;22.50;68.60
9847;DHT22;68671;50.084;8.794;2023-07-13T00:58:16;22.40;68.70
9847;DHT22;68671;50.084;8.794;2023-07-13T01:00:44;22.40;68.90
9847;DHT22;68671;50.084;8.794;2023-07-13T01:03:12;22.40;69.20
9847;DHT22;68671;50.084;8.794;2023-07-13T01:05:39;22.40;69.40
9847;DHT22;68671;50.084;8.794;2023-07-13T01:08:06;22.30;69.50
9847;DHT22;68671;50.084;8.794;2023-07-13T01:10:35;22.30;69.90
9847;DHT22;68671;50.084;8.794;2023-07-13T01:13:05;22.30;70.00
9847;DHT22;68671;50.084;8.794;2023-07-13T01:15:37;22.20;70.00
9847;DHT22;68671;50.084;8.794;2023-07-13T01:18:05;22.20;70.30
9847;DHT22;68671;50.084;8.794;2023-07-13T01:20:33;22.20;70.40
9847;DHT22;68671;50.084;8.794;2023-07-13T01:23:05;22.20;70.50
9847;DHT22;68671;50.084;8.794;2023-07-13T01:25:34;22.20;70.60
9847;DHT22;68671;50.084;8.794;2023-07-13T01:28:01;22.20;70.50
9847;DHT22;68671;50.084;8.794;2023-07-13T01:30:28;22.20;70.60
9847;DHT22;68671;50.084;8.794;2023-07-13T01:32:56;22.20;70.60
9847;DHT22;68671;50.084;8.794;2023-07-13T01:35:23;22.10;70.70
9847;DHT22;68671;50.084;8.794;2023-07-13T01:37:52;22.10;70.80
9847;DHT22;68671;50.084;8.794;2023-07-13T01:40:21;22.10;70.80
9847;DHT22;68671;50.084;8.794;2023-07-13T01:42:48;22.10;71.00
9847;DHT22;68671;50.084;8.794;2023-07-13T01:45:15;22.10;71.30
9847;DHT22;68671;50.084;8.794;2023-07-13T01:47:42;22.10;71.40
9847;DHT22;68671;50.084;8.794;2023-07-13T01:50:09;22.00;72.30
9847;DHT22;68671;50.084;8.794;2023-07-13T01:52:36;22.00;71.60
9847;DHT22;68671;50.084;8.794;2023-07-13T01:55:04;22.00;71.70
9847;DHT22;68671;50.084;8.794;2023-07-13T01:57:33;22.00;71.90
9847;DHT22;68671;50.084;8.794;2023-07-13T02:00:03;22.00;71.90
9847;DHT22;68671;50.084;8.794;2023-07-13T02:02:31;22.00;72.20
9847;DHT22;68671;50.084;8.794;2023-07-13T02:04:58;21.90;72.20
9847;DHT22;68671;50.084;8.794;2023-07-13T02:07:25;21.90;72.40
9847;DHT22;68671;50.084;8.794;2023-07-13T02:09:53;21.90;72.60
9847;DHT22;68671;50.084;8.794;2023-07-13T02:12:20;21.80;72.80
9847;DHT22;68671;50.084;8.794;2023-07-13T02:14:48;21.80;73.00
9847;DHT22;68671;50.084;8.794;2023-07-13T02:17:15;21.80;73.20
9847;DHT22;68671;50.084;8.794;2023-07-13T02:19:42;21.70;73.30
9847;DHT22;68671;50.084;8.794;2023-07-13T02:22:09;21.70;73.70
9847;DHT22;68671;50.084;8.794;2023-07-13T02:24:36;21.60;73.90
9847;DHT22;68671;50.084;8.794;2023-07-13T02:27:04;21.60;74.30
9847;DHT22;68671;50.084;8.794;2023-07-13T02:29:31;21.60;74.60
9847;DHT22;68671;50.084;8.794;2023-07-13T02:31:59;21.50;74.80
9847;DHT22;68671;50.084;8.794;2023-07-13T02:34:26;21.50;75.10
9847;DHT22;68671;50.084;8.794;2023-07-13T02:36:53;21.50;76.20
9847;DHT22;68671;50.084;8.794;2023-07-13T02:39:21;21.50;75.60
9847;DHT22;68671;50.084;8.794;2023-07-13T02:41:48;21.50;75.60
9847;DHT22;68671;50.084;8.794;2023-07-13T02:44:15;21.50;75.80
9847;DHT22;68671;50.084;8.794;2023-07-13T02:46:42;21.40;75.80
9847;DHT22;68671;50.084;8.794;2023-07-13T02:49:11;21.50;76.10
9847;DHT22;68671;50.084;8.794;2023-07-13T02:51:38;21.50;76.10
9847;DHT22;68671;50.084;8.794;2023-07-13T02:54:05;21.40;76.30
9847;DHT22;68671;50.084;8.794;2023-07-13T02:56:34;21.40;76.50
9847;DHT22;68671;50.084;8.794;2023-07-13T02:59:01;21.30;76.90
9847;DHT22;68671;50.084;8.794;2023-07-13T03:01:28;21.30;77.40
9847;DHT22;68671;50.084;8.794;2023-07-13T03:03:55;21.30;77.90
9847;DHT22;68671;50.084;8.794;2023-07-13T03:06:24;21.20;78.30
9847;DHT22;68671;50.084;8.794;2023-07-13T03:08:51;21.10;78.50
9847;DHT22;68671;50.084;8.794;2023-07-13T03:11:19;21.10;78.80
9847;DHT22;68671;50.084;8.794;2023-07-13T03:13:47;21.10;79.20
9847;DHT22;68671;50.084;8.794;2023-07-13T03:16:14;21.00;79.70
9847;DHT22;68671;50.084;8.794;2023-07-13T03:18:42;21.00;80.10
9847;DHT22;68671;50.084;8.794;2023-07-13T03:21:10;21.00;80.50
9847;DHT22;68671;50.084;8.794;2023-07-13T03:23:38;21.00;80.80
9847;DHT22;68671;50.084;8.794;2023-07-13T03:26:08;21.00;81.10
9847;DHT22;68671;50.084;8.794;2023-07-13T03:28:36;21.00;81.40
9847;DHT22;68671;50.084;8.794;2023-07-13T03:31:05;21.00;81.80
9847;DHT22;68671;50.084;8.794;2023-07-13T03:33:32;20.90;82.00
9847;DHT22;68671;50.084;8.794;2023-07-13T03:35:59;21.00;82.60
9847;DHT22;68671;50.084;8.794;2023-07-13T03:38:26;20.90;82.80
9847;DHT22;68671;50.084;8.794;2023-07-13T03:40:55;20.90;83.10
9847;DHT22;68671;50.084;8.794;2023-07-13T03:43:22;20.90;83.40
9847;DHT22;68671;50.084;8.794;2023-07-13T03:45:49;21.00;83.80
9847;DHT22;68671;50.084;8.794;2023-07-13T03:48:16;20.90;84.10
9847;DHT22;68671;50.084;8.794;2023-07-13T03:50:43;20.90;84.40
9847;DHT22;68671;50.084;8.794;2023-07-13T03:53:10;20.90;84.80
9847;DHT22;68671;50.084;8.794;2023-07-13T03:55:37;20.90;85.20
9847;DHT22;68671;50.084;8.794;2023-07-13T03:58:31;20.90;85.50
9847;DHT22;68671;50.084;8.794;2023-07-13T04:00:58;20.90;86.00
9847;DHT22;68671;50.084;8.794;2023-07-13T04:03:26;20.90;86.20
9847;DHT22;68671;50.084;8.794;2023-07-13T04:05:54;21.00;86.50
9847;DHT22;68671;50.084;8.794;2023-07-13T04:08:25;21.00;86.60
9847;DHT22;68671;50.084;8.794;2023-07-13T04:10:52;21.10;86.90
9847;DHT22;68671;50.084;8.794;2023-07-13T04:13:19;21.10;87.00
9847;DHT22;68671;50.084;8.794;2023-07-13T04:15:47;21.10;86.90
9847;DHT22;68671;50.084;8.794;2023-07-13T04:18:14;21.10;87.10
9847;DHT22;68671;50.084;8.794;2023-07-13T04:20:41;21.10;87.30
9847;DHT22;68671;50.084;8.794;2023-07-13T04:23:08;21.10;87.40
9847;DHT22;68671;50.084;8.794;2023-07-13T04:25:35;21.10;87.60
9847;DHT22;68671;50.084;8.794;2023-07-13T04:28:03;21.20;88.00
9847;DHT22;68671;50.084;8.794;2023-07-13T04:30:31;21.20;88.30
9847;DHT22;68671;50.084;8.794;2023-07-13T04:32:59;21.30;89.80
9847;DHT22;68671;50.084;8.794;2023-07-13T04:35:26;21.50;89.40
9847;DHT22;68671;50.084;8.794;2023-07-13T04:37:53;21.60;88.30
9847;DHT22;68671;50.084;8.794;2023-07-13T04:40:20;21.60;87.50
9847;DHT22;68671;50.084;8.794;2023-07-13T04:42:47;21.70;87.20
9847;DHT22;68671;50.084;8.794;2023-07-13T04:45:15;21.80;87.20
9847;DHT22;68671;50.084;8.794;2023-07-13T04:47:43;21.80;86.90
9847;DHT22;68671;50.084;8.794;2023-07-13T04:50:13;21.80;87.00
9847;DHT22;68671;50.084;8.794;2023-07-13T04:52:46;21.90;87.10
9847;DHT22;68671;50.084;8.794;2023-07-13T04:55:13;21.90;87.10
9847;DHT22;68671;50.084;8.794;2023-07-13T04:57:40;22.00;87.30
9847;DHT22;68671;50.084;8.794;2023-07-13T05:00:08;22.00;87.30
9847;DHT22;68671;50.084;8.794;2023-07-13T05:02:37;22.00;87.50
9847;DHT22;68671;50.084;8.794;2023-07-13T05:05:05;21.90;87.40
9847;DHT22;68671;50.084;8.794;2023-07-13T05:07:33;21.90;87.60
9847;DHT22;68671;50.084;8.794;2023-07-13T05:10:00;21.80;87.90
9847;DHT22;68671;50.084;8.794;2023-07-13T05:12:27;21.80;88.40
9847;DHT22;68671;50.084;8.794;2023-07-13T05:14:54;21.80;89.00
9847;DHT22;68671;50.084;8.794;2023-07-13T05:17:21;21.90;89.40
9847;DHT22;68671;50.084;8.794;2023-07-13T05:19:48;21.80;89.40
9847;DHT22;68671;50.084;8.794;2023-07-13T05:22:15;21.90;89.40
9847;DHT22;68671;50.084;8.794;2023-07-13T05:24:43;21.90;89.30
9847;DHT22;68671;50.084;8.794;2023-07-13T05:27:10;22.00;89.20
9847;DHT22;68671;50.084;8.794;2023-07-13T05:29:37;22.00;89.30
9847;DHT22;68671;50.084;8.794;2023-07-13T05:32:05;22.00;89.50
9847;DHT22;68671;50.084;8.794;2023-07-13T05:34:32;22.10;89.80
9847;DHT22;68671;50.084;8.794;2023-07-13T05:36:58;22.10;90.00
9847;DHT22;68671;50.084;8.794;2023-07-13T05:39:25;22.30;90.80
9847;DHT22;68671;50.084;8.794;2023-07-13T05:41:54;22.60;90.70
9847;DHT22;68671;50.084;8.794;2023-07-13T05:44:21;23.00;89.40
9847;DHT22;68671;50.084;8.794;2023-07-13T05:46:48;23.20;87.60
9847;DHT22;68671;50.084;8.794;2023-07-13T05:49:15;23.40;87.50
9847;DHT22;68671;50.084;8.794;2023-07-13T05:51:42;23.70;86.50
9847;DHT22;68671;50.084;8.794;2023-07-13T05:54:09;23.90;85.60
9847;DHT22;68671;50.084;8.794;2023-07-13T05:56:36;24.20;84.40
9847;DHT22;68671;50.084;8.794;2023-07-13T05:59:04;24.20;83.10
9847;DHT22;68671;50.084;8.794;2023-07-13T06:01:31;24.30;82.50
9847;DHT22;68671;50.084;8.794;2023-07-13T06:03:58;24.40;83.00
9847;DHT22;68671;50.084;8.794;2023-07-13T06:06:25;24.60;83.70
9847;DHT22;68671;50.084;8.794;2023-07-13T06:08:52;24.90;83.00
9847;DHT22;68671;50.084;8.794;2023-07-13T06:11:21;25.30;82.50
9847;DHT22;68671;50.084;8.794;2023-07-13T06:13:48;25.60;80.80
9847;DHT22;68671;50.084;8.794;2023-07-13T06:16:17;25.90;79.90
9847;DHT22;68671;50.084;8.794;2023-07-13T06:18:44;26.20;79.80
9847;DHT22;68671;50.084;8.794;2023-07-13T06:21:13;26.60;78.40
9847;DHT22;68671;50.084;8.794;2023-07-13T06:23:40;27.10;77.00
9847;DHT22;68671;50.084;8.794;2023-07-13T06:26:08;27.70;75.30
9847;DHT22;68671;50.084;8.794;2023-07-13T06:28:36;28.20;73.10
9847;DHT22;68671;50.084;8.794;2023-07-13T06:31:05;28.60;71.40
9847;DHT22;68671;50.084;8.794;2023-07-13T06:33:34;29.00;69.80
9847;DHT22;68671;50.084;8.794;2023-07-13T06:36:01;29.40;68.20
9847;DHT22;68671;50.084;8.794;2023-07-13T06:38:28;29.80;66.70
9847;DHT22;68671;50.084;8.794;2023-07-13T06:40:55;30.20;65.20
9847;DHT22;68671;50.084;8.794;2023-07-13T06:43:23;30.60;63.60
9847;DHT22;68671;50.084;8.794;2023-07-13T06:45:51;30.90;62.20
9847;DHT22;68671;50.084;8.794;2023-07-13T06:48:18;31.30;61.10
9847;DHT22;68671;50.084;8.794;2023-07-13T06:50:48;31.60;59.80
9847;DHT22;68671;50.084;8.794;2023-07-13T06:53:16;31.90;58.80
9847;DHT22;68671;50.084;8.794;2023-07-13T06:55:44;32.20;58.10
9847;DHT22;68671;50.084;8.794;2023-07-13T06:58:11;32.50;57.40
9847;DHT22;68671;50.084;8.794;2023-07-13T07:00:38;32.80;56.30
9847;DHT22;68671;50.084;8.794;2023-07-13T07:03:06;33.10;55.70
9847;DHT22;68671;50.084;8.794;2023-07-13T07:05:33;33.40;55.00
9847;DHT22;68671;50.084;8.794;2023-07-13T07:08:01;33.70;54.50
9847;DHT22;68671;50.084;8.794;2023-07-13T07:10:30;34.00;53.60
9847;DHT22;68671;50.084;8.794;2023-07-13T07:12:57;34.20;52.70
9847;DHT22;68671;50.084;8.794;2023-07-13T07:15:24;34.50;52.10
9847;DHT22;68671;50.084;8.794;2023-07-13T07:17:51;34.80;51.90
9847;DHT22;68671;50.084;8.794;2023-07-13T07:20:18;35.10;50.90
9847;DHT22;68671;50.084;8.794;2023-07-13T07:22:45;35.40;50.50
9847;DHT22;68671;50.084;8.794;2023-07-13T07:25:14;35.70;49.80
9847;DHT22;68671;50.084;8.794;2023-07-13T07:27:41;36.00;48.80
9847;DHT22;68671;50.084;8.794;2023-07-13T07:30:08;35.90;47.70
9847;DHT22;68671;50.084;8.794;2023-07-13T07:32:35;35.80;47.20
9847;DHT22;68671;50.084;8.794;2023-07-13T07:35:02;35.50;46.70
9847;DHT22;68671;50.084;8.794;2023-07-13T07:37:29;35.20;47.50
9847;DHT22;68671;50.084;8.794;2023-07-13T07:39:56;34.90;47.80
9847;DHT22;68671;50.084;8.794;2023-07-13T07:42:26;34.80;48.50
9847;DHT22;68671;50.084;8.794;2023-07-13T07:44:53;34.90;48.60
9847;DHT22;68671;50.084;8.794;2023-07-13T07:47:20;35.20;48.70
9847;DHT22;68671;50.084;8.794;2023-07-13T07:49:48;35.60;48.60
9847;DHT22;68671;50.084;8.794;2023-07-13T07:52:15;36.20;48.00
9847;DHT22;68671;50.084;8.794;2023-07-13T07:54:42;36.70;47.00
9847;DHT22;68671;50.084;8.794;2023-07-13T07:57:09;37.20;46.00
9847;DHT22;68671;50.084;8.794;2023-07-13T07:59:37;37.60;45.30
9847;DHT22;68671;50.084;8.794;2023-07-13T08:02:05;38.00;44.70
9847;DHT22;68671;50.084;8.794;2023-07-13T08:04:36;38.50;44.20
9847;DHT22;68671;50.084;8.794;2023-07-13T08:07:03;38.90;43.30
9847;DHT22;68671;50.084;8.794;2023-07-13T08:09:30;39.20;42.80
9847;DHT22;68671;50.084;8.794;2023-07-13T08:11:57;39.60;42.00
9847;DHT22;68671;50.084;8.794;2023-07-13T08:14:24;40.10;42.00
9847;DHT22;68671;50.084;8.794;2023-07-13T08:16:53;40.40;40.40
9847;DHT22;68671;50.084;8.794;2023-07-13T08:19:20;40.60;39.60
9847;DHT22;68671;50.084;8.794;2023-07-13T08:21:47;40.80;39.30
9847;DHT22;68671;50.084;8.794;2023-07-13T08:24:15;40.80;38.10
9847;DHT22;68671;50.084;8.794;2023-07-13T08:26:44;40.80;37.70
9847;DHT22;68671;50.084;8.794;2023-07-13T08:29:11;40.60;37.60
9847;DHT22;68671;50.084;8.794;2023-07-13T08:31:38;40.60;37.50
9847;DHT22;68671;50.084;8.794;2023-07-13T08:34:06;40.50;37.60
9847;DHT22;68671;50.084;8.794;2023-07-13T08:36:33;40.50;37.60
9847;DHT22;68671;50.084;8.794;2023-07-13T08:39:00;40.40;37.00
9847;DHT22;68671;50.084;8.794;2023-07-13T08:41:28;40.10;36.80
9847;DHT22;68671;50.084;8.794;2023-07-13T08:43:58;39.60;36.90
9847;DHT22;68671;50.084;8.794;2023-07-13T08:46:30;39.00;37.20
9847;DHT22;68671;50.084;8.794;2023-07-13T08:49:01;38.40;38.00
9847;DHT22;68671;50.084;8.794;2023-07-13T08:51:37;37.70;38.70
9847;DHT22;68671;50.084;8.794;2023-07-13T08:54:12;37.10;39.40
9847;DHT22;68671;50.084;8.794;2023-07-13T08:56:45;36.50;40.20
9847;DHT22;68671;50.084;8.794;2023-07-13T08:59:14;35.90;41.20
9847;DHT22;68671;50.084;8.794;2023-07-13T09:01:57;35.50;41.80
9847;DHT22;68671;50.084;8.794;2023-07-13T09:04:28;35.00;42.50
9847;DHT22;68671;50.084;8.794;2023-07-13T09:07:05;34.50;43.40
9847;DHT22;68671;50.084;8.794;2023-07-13T09:09:42;34.20;44.40
9847;DHT22;68671;50.084;8.794;2023-07-13T09:12:19;33.90;44.70
9847;DHT22;68671;50.084;8.794;2023-07-13T09:14:53;33.60;45.20
9847;DHT22;68671;50.084;8.794;2023-07-13T09:17:24;33.40;45.80
9847;DHT22;68671;50.084;8.794;2023-07-13T09:19:57;33.20;46.20
9847;DHT22;68671;50.084;8.794;2023-07-13T09:22:28;32.90;46.50
9847;DHT22;68671;50.084;8.794;2023-07-13T09:25:02;32.70;47.00
9847;DHT22;68671;50.084;8.794;2023-07-13T09:27:36;32.50;47.70
9847;DHT22;68671;50.084;8.794;2023-07-13T09:30:21;32.40;48.00
9847;DHT22;68671;50.084;8.794;2023-07-13T09:32:52;32.30;48.30
9847;DHT22;68671;50.084;8.794;2023-07-13T09:35:23;32.10;48.50
9847;DHT22;68671;50.084;8.794;2023-07-13T09:37:58;31.90;48.80
9847;DHT22;68671;50.084;8.794;2023-07-13T09:40:30;31.70;49.30
9847;DHT22;68671;50.084;8.794;2023-07-13T09:42:59;31.60;49.70
9847;DHT22;68671;50.084;8.794;2023-07-13T09:45:30;31.40;50.60
9847;DHT22;68671;50.084;8.794;2023-07-13T09:48:05;31.40;51.10
9847;DHT22;68671;50.084;8.794;2023-07-13T09:50:33;31.30;51.40
9847;DHT22;68671;50.084;8.794;2023-07-13T09:53:02;31.20;51.40
9847;DHT22;68671;50.084;8.794;2023-07-13T09:55:31;31.20;51.50
9847;DHT22;68671;50.084;8.794;2023-07-13T09:58:03;31.20;51.40
9847;DHT22;68671;50.084;8.794;2023-07-13T10:00:31;31.10;51.90
9847;DHT22;68671;50.084;8.794;2023-07-13T10:03:01;31.00;51.70
9847;DHT22;68671;50.084;8.794;2023-07-13T10:05:37;30.90;51.90
9847;DHT22;68671;50.084;8.794;2023-07-13T10:08:06;30.80;51.80
9847;DHT22;68671;50.084;8.794;2023-07-13T10:10:34;30.70;52.30
9847;DHT22;68671;50.084;8.794;2023-07-13T10:13:02;30.60;52.40
9847;DHT22;68671;50.084;8.794;2023-07-13T10:15:31;30.60;52.40
9847;DHT22;68671;50.084;8.794;2023-07-13T10:17:59;30.60;52.60
9847;DHT22;68671;50.084;8.794;2023-07-13T10:20:27;30.60;52.60
9847;DHT22;68671;50.084;8.794;2023-07-13T10:22:56;30.60;52.60
9847;DHT22;68671;50.084;8.794;2023-07-13T10:25:29;30.50;52.60
9847;DHT22;68671;50.084;8.794;2023-07-13T10:28:02;30.40;52.90
9847;DHT22;68671;50.084;8.794;2023-07-13T10:30:34;30.30;52.80
9847;DHT22;68671;50.084;8.794;2023-07-13T10:33:03;30.20;53.10
9847;DHT22;68671;50.084;8.794;2023-07-13T10:35:37;30.10;53.50
9847;DHT22;68671;50.084;8.794;2023-07-13T10:38:07;30.00;54.00
9847;DHT22;68671;50.084;8.794;2023-07-13T10:40:39;29.90;54.20
9847;DHT22;68671;50.084;8.794;2023-07-13T10:43:13;29.80;54.30
9847;DHT22;68671;50.084;8.794;2023-07-13T10:45:45;29.80;54.60
9847;DHT22;68671;50.084;8.794;2023-07-13T10:48:16;29.80;55.10
9847;DHT22;68671;50.084;8.794;2023-07-13T10:50:46;29.80;54.90
9847;DHT22;68671;50.084;8.794;2023-07-13T10:53:19;29.90;54.70
9847;DHT22;68671;50.084;8.794;2023-07-13T10:55:59;29.80;54.40
9847;DHT22;68671;50.084;8.794;2023-07-13T10:58:32;29.80;54.50
9847;DHT22;68671;50.084;8.794;2023-07-13T11:01:06;29.80;54.60
9847;DHT22;68671;50.084;8.794;2023-07-13T11:03:35;29.70;54.40
9847;DHT22;68671;50.084;8.794;2023-07-13T11:06:07;29.60;54.60
9847;DHT22;68671;50.084;8.794;2023-07-13T11:08:37;29.50;55.10
9847;DHT22;68671;50.084;8.794;2023-07-13T11:11:36;29.40;55.10
9847;DHT22;68671;50.084;8.794;2023-07-13T11:14:04;29.30;55.00
9847;DHT22;68671;50.084;8.794;2023-07-13T11:16:51;29.20;55.20
9847;DHT22;68671;50.084;8.794;2023-07-13T11:19:28;29.00;54.90
9847;DHT22;68671;50.084;8.794;2023-07-13T11:22:11;29.00;55.60
9847;DHT22;68671;50.084;8.794;2023-07-13T11:25:20;28.80;55.30
9847;DHT22;68671;50.084;8.794;2023-07-13T11:27:51;28.70;55.60
9847;DHT22;68671;50.084;8.794;2023-07-13T11:30:25;28.60;55.70
9847;DHT22;68671;50.084;8.794;2023-07-13T11:33:10;28.60;55.40
9847;DHT22;68671;50.084;8.794;2023-07-13T11:35:52;28.50;55.20
9847;DHT22;68671;50.084;8.794;2023-07-13T11:38:22;28.50;55.40
9847;DHT22;68671;50.084;8.794;2023-07-13T11:40:52;28.40;56.40
9847;DHT22;68671;50.084;8.794;2023-07-13T11:43:22;28.40;55.90
9847;DHT22;68671;50.084;8.794;2023-07-13T11:45:50;28.30;55.30
9847;DHT22;68671;50.084;8.794;2023-07-13T11:48:20;28.30;55.50
9847;DHT22;68671;50.084;8.794;2023-07-13T11:50:53;28.20;55.90
9847;DHT22;68671;50.084;8.794;2023-07-13T11:53:21;28.20;56.10
9847;DHT22;68671;50.084;8.794;2023-07-13T11:55:48;28.20;56.40
9847;DHT22;68671;50.084;8.794;2023-07-13T11:58:22;28.20;56.80
9847;DHT22;68671;50.084;8.794;2023-07-13T12:00:51;28.20;57.00
9847;DHT22;68671;50.084;8.794;2023-07-13T12:03:21;28.20;57.30
9847;DHT22;68671;50.084;8.794;2023-07-13T12:05:57;28.20;56.30
9847;DHT22;68671;50.084;8.794;2023-07-13T12:08:25;28.20;56.10
9847;DHT22;68671;50.084;8.794;2023-07-13T12:11:06;28.20;55.40
9847;DHT22;68671;50.084;8.794;2023-07-13T12:13:38;28.20;55.50
9847;DHT22;68671;50.084;8.794;2023-07-13T12:16:13;28.10;55.10
9847;DHT22;68671;50.084;8.794;2023-07-13T12:18:42;28.10;55.10
9847;DHT22;68671;50.084;8.794;2023-07-13T12:21:14;28.10;55.20
9847;DHT22;68671;50.084;8.794;2023-07-13T12:23:43;28.10;55.10
9847;DHT22;68671;50.084;8.794;2023-07-13T12:26:12;28.10;55.00
9847;DHT22;68671;50.084;8.794;2023-07-13T12:28:46;28.10;55.50
9847;DHT22;68671;50.084;8.794;2023-07-13T12:31:26;28.20;54.60
9847;DHT22;68671;50.084;8.794;2023-07-13T12:33:58;28.20;54.00
9847;DHT22;68671;50.084;8.794;2023-07-13T12:36:25;28.20;54.20
9847;DHT22;68671;50.084;8.794;2023-07-13T12:38:52;28.20;53.10
9847;DHT22;68671;50.084;8.794;2023-07-13T12:41:19;28.20;53.00
9847;DHT22;68671;50.084;8.794;2023-07-13T12:43:50;28.30;53.50
9847;DHT22;68671;50.084;8.794;2023-07-13T12:46:19;28.30;53.20
9847;DHT22;68671;50.084;8.794;2023-07-13T12:48:50;28.40;53.50
9847;DHT22;68671;50.084;8.794;2023-07-13T12:51:21;28.40;53.50
9847;DHT22;68671;50.084;8.794;2023-07-13T12:53:50;28.40;53.50
9847;DHT22;68671;50.084;8.794;2023-07-13T12:56:22;28.40;53.90
9847;DHT22;68671;50.084;8.794;2023-07-13T12:58:57;28.40;53.70
9847;DHT22;68671;50.084;8.794;2023-07-13T13:01:27;28.40;53.40
9847;DHT22;68671;50.084;8.794;2023-07-13T13:03:55;28.40;53.20
9847;DHT22;68671;50.084;8.794;2023-07-13T13:06:25;28.40;53.10
9847;DHT22;68671;50.084;8.794;2023-07-13T13:08:54;28.50;52.90
9847;DHT22;68671;50.084;8.794;2023-07-13T13:11:22;28.40;52.80
9847;DHT22;68671;50.084;8.794;2023-07-13T13:13:52;28.30;53.70
9847;DHT22;68671;50.084;8.794;2023-07-13T13:16:21;28.30;53.40
9847;DHT22;68671;50.084;8.794;2023-07-13T13:18:51;28.20;54.50
9847;DHT22;68671;50.084;8.794;2023-07-13T13:21:18;28.10;54.40
9847;DHT22;68671;50.084;8.794;2023-07-13T13:23:45;28.10;54.40
9847;DHT22;68671;50.084;8.794;2023-07-13T13:26:14;28.00;55.70
9847;DHT22;68671;50.084;8.794;2023-07-13T13:28:42;27.90;59.60
9847;DHT22;68671;50.084;8.794;2023-07-13T13:31:11;27.80;61.80
9847;DHT22;68671;50.084;8.794;2023-07-13T13:33:40;27.80;64.20
9847;DHT22;68671;50.084;8.794;2023-07-13T13:36:14;27.80;62.30
9847;DHT22;68671;50.084;8.794;2023-07-13T13:38:42;27.70;62.20
9847;DHT22;68671;50.084;8.794;2023-07-13T13:41:11;27.60;61.60
9847;DHT22;68671;50.084;8.794;2023-07-13T13:43:39;27.60;60.90
9847;DHT22;68671;50.084;8.794;2023-07-13T13:46:14;27.50;61.10
9847;DHT22;68671;50.084;8.794;2023-07-13T13:48:42;27.50;60.50
9847;DHT22;68671;50.084;8.794;2023-07-13T13:51:15;27.50;60.90
9847;DHT22;68671;50.084;8.794;2023-07-13T13:53:43;27.40;60.50
9847;DHT22;68671;50.084;8.794;2023-07-13T13:56:11;27.40;61.60
9847;DHT22;68671;50.084;8.794;2023-07-13T13:58:38;27.30;61.70
9847;DHT22;68671;50.084;8.794;2023-07-13T14:01:10;27.10;62.20
9847;DHT22;68671;50.084;8.794;2023-07-13T14:03:39;26.90;62.80
9847;DHT22;68671;50.084;8.794;2023-07-13T14:06:08;26.60;64.10
9847;DHT22;68671;50.084;8.794;2023-07-13T14:08:37;26.50;65.30
9847;DHT22;68671;50.084;8.794;2023-07-13T14:11:03;26.50;65.50
9847;DHT22;68671;50.084;8.794;2023-07-13T14:13:35;26.60;65.00
9847;DHT22;68671;50.084;8.794;2023-07-13T14:16:04;26.70;64.40
9847;DHT22;68671;50.084;8.794;2023-07-13T14:18:35;26.80;64.90
9847;DHT22;68671;50.084;8.794;2023-07-13T14:21:02;26.80;64.60
9847;DHT22;68671;50.084;8.794;2023-07-13T14:23:29;26.80;66.70
9847;DHT22;68671;50.084;8.794;2023-07-13T14:25:56;26.80;68.50
9847;DHT22;68671;50.084;8.794;2023-07-13T14:28:24;26.80;67.00
9847;DHT22;68671;50.084;8.794;2023-07-13T14:30:52;26.80;69.30
9847;DHT22;68671;50.084;8.794;2023-07-13T14:33:22;26.80;68.30
9847;DHT22;68671;50.084;8.794;2023-07-13T14:35:51;26.80;68.60
9847;DHT22;68671;50.084;8.794;2023-07-13T14:38:19;26.90;68.20
9847;DHT22;68671;50.084;8.794;2023-07-13T14:40:46;26.90;69.60
9847;DHT22;68671;50.084;8.794;2023-07-13T14:43:15;26.90;70.00
9847;DHT22;68671;50.084;8.794;2023-07-13T14:45:44;26.90;70.30
9847;DHT22;68671;50.084;8.794;2023-07-13T14:48:16;26.90;69.50
9847;DHT22;68671;50.084;8.794;2023-07-13T14:50:44;26.90;70.20
9847;DHT22;68671;50.084;8.794;2023-07-13T14:53:13;26.90;70.00
9847;DHT22;68671;50.084;8.794;2023-07-13T14:55:41;26.90;71.90
9847;DHT22;68671;50.084;8.794;2023-07-13T14:58:08;26.90;71.90
9847;DHT22;68671;50.084;8.794;2023-07-13T15:00:36;27.00;71.00
9847;DHT22;68671;50.084;8.794;2023-07-13T15:03:04;27.00;70.70
9847;DHT22;68671;50.084;8.794;2023-07-13T15:05:32;27.10;70.50
9847;DHT22;68671;50.084;8.794;2023-07-13T15:08:01;27.20;69.70
9847;DHT22;68671;50.084;8.794;2023-07-13T15:10:31;27.10;70.00
9847;DHT22;68671;50.084;8.794;2023-07-13T15:13:00;27.10;70.20
9847;DHT22;68671;50.084;8.794;2023-07-13T15:15:30;27.10;70.20
9847;DHT22;68671;50.084;8.794;2023-07-13T15:17:59;27.10;70.40
9847;DHT22;68671;50.084;8.794;2023-07-13T15:20:29;27.10;70.30
9847;DHT22;68671;50.084;8.794;2023-07-13T15:22:57;27.10;70.20
9847;DHT22;68671;50.084;8.794;2023-07-13T15:25:26;27.20;69.70
9847;DHT22;68671;50.084;8.794;2023-07-13T15:27:56;27.20;69.40
9847;DHT22;68671;50.084;8.794;2023-07-13T15:30:26;27.20;69.30
9847;DHT22;68671;50.084;8.794;2023-07-13T15:32:54;27.30;69.70
9847;DHT22;68671;50.084;8.794;2023-07-13T15:35:25;27.30;69.50
9847;DHT22;68671;50.084;8.794;2023-07-13T15:37:53;27.30;70.00
9847;DHT22;68671;50.084;8.794;2023-07-13T15:40:22;27.40;70.60
9847;DHT22;68671;50.084;8.794;2023-07-13T15:42:50;27.40;71.80
9847;DHT22;68671;50.084;8.794;2023-07-13T15:45:21;27.30;76.80
9847;DHT22;68671;50.084;8.794;2023-07-13T15:47:50;27.10;84.40
9847;DHT22;68671;50.084;8.794;2023-07-13T15:50:20;27.00;90.50
9847;DHT22;68671;50.084;8.794;2023-07-13T15:52:50;26.80;92.10
9847;DHT22;68671;50.084;8.794;2023-07-13T15:55:18;26.70;91.90
9847;DHT22;68671;50.084;8.794;2023-07-13T15:57:47;26.60;90.70
9847;DHT22;68671;50.084;8.794;2023-07-13T16:00:20;26.50;88.80